Time;durP1;ratioP1;P1;durP2;ratioP2;P2;SDS_P1;SDS_P2;PMS_P1;PMS_P2;Temp;Humidity;BMP_temperature;BMP_pressure;BME280_temperature;BME280_humidity;BME280_pressure;Samples;Min_cycle;Max_cycle;Signal;HPM_P1;HPM_P2
2021/10/07 00:00:34;;;;;;;2.70;2.00;;;;;;;;;;5129873;27;20661;-80
2021/10/07 00:03:01;;;;;;;5.47;2.50;;;;;;;;;;5141172;27;20975;-81
2021/10/07 00:05:28;;;;;;;3.70;2.80;;;;;;;;;;5141151;27;20775;-81
2021/10/07 00:07:55;;;;;;;3.63;2.13;;;;;;;;;;5140908;27;20548;-82
2021/10/07 00:10:22;;;;;;;2.23;1.87;;;;;;;;;;5139892;27;20536;-81
2021/10/07 00:12:49;;;;;;;3.93;2.30;;;;;;;;;;5141234;27;20457;-80
2021/10/07 00:15:16;;;;;;;7.10;3.80;;;;;;;;;;5140893;27;20482;-80
2021/10/07 00:17:44;;;;;;;3.57;1.80;;;;;;;;;;5144794;27;20481;-82
2021/10/07 00:20:13;;;;;;;3.23;1.90;;;;;;;;;;5142979;27;20489;-83
2021/10/07 00:22:41;;;;;;;5.30;2.13;;;;;;;;;;5144985;27;20454;-83
2021/10/07 00:25:09;;;;;;;3.87;1.30;;;;;;;;;;5145330;27;20514;-83
2021/10/07 00:27:36;;;;;;;5.03;2.80;;;;;;;;;;5150005;27;20457;-82
2021/10/07 00:30:08;;;;;;;3.17;1.73;;;;;;;;;;5147764;27;20446;-83
2021/10/07 00:32:39;;;;;;;5.63;2.30;;;;;;;;;;5144849;27;20481;-82
2021/10/07 00:40:39;;;;;;;3.70;2.13;;;;;;;;;;5037019;28;21107;-82
2021/10/07 00:43:06;;;;;;;5.17;2.03;;;;;;;;;;5106544;28;21053;-83
2021/10/07 00:45:33;;;;;;;3.83;2.07;;;;;;;;;;5104562;28;20482;-82
2021/10/07 00:48:00;;;;;;;8.23;2.60;;;;;;;;;;5103888;28;20542;-81
2021/10/07 00:50:28;;;;;;;3.27;2.90;;;;;;;;;;5121471;27;20805;-83
2021/10/07 00:52:55;;;;;;;4.00;2.57;;;;;;;;;;5144591;27;20457;-82
2021/10/07 00:55:22;;;;;;;2.20;1.80;;;;;;;;;;5145511;27;20576;-82
2021/10/07 00:57:49;;;;;;;3.50;2.00;;;;;;;;;;5144601;27;20452;-83
2021/10/07 01:00:16;;;;;;;2.50;2.20;;;;;;;;;;5138073;27;20967;-82
2021/10/07 01:02:43;;;;;;;3.83;1.80;;;;;;;;;;5124023;27;20481;-82
2021/10/07 01:05:10;;;;;;;3.00;2.07;;;;;;;;;;5122223;27;20941;-82
2021/10/07 01:07:39;;;;;;;4.13;1.70;;;;;;;;;;5126003;27;20469;-82
2021/10/07 01:10:06;;;;;;;5.43;2.00;;;;;;;;;;5126088;27;20449;-82
2021/10/07 01:12:33;;;;;;;3.47;2.63;;;;;;;;;;5123035;27;20566;-82
2021/10/07 01:15:00;;;;;;;4.43;1.87;;;;;;;;;;5126901;27;20558;-81
2021/10/07 01:17:27;;;;;;;3.77;2.03;;;;;;;;;;5122873;27;20450;-81
2021/10/07 01:19:56;;;;;;;4.27;2.50;;;;;;;;;;5125757;27;20759;-81
2021/10/07 01:22:24;;;;;;;8.80;2.30;;;;;;;;;;5124531;27;20599;-82
2021/10/07 01:24:51;;;;;;;2.13;1.67;;;;;;;;;;5122056;27;20455;-81
2021/10/07 01:27:19;;;;;;;3.57;2.03;;;;;;;;;;5125578;27;20451;-82
2021/10/07 01:29:51;;;;;;;2.63;1.80;;;;;;;;;;5124948;27;20618;-83
2021/10/07 01:32:18;;;;;;;2.23;1.63;;;;;;;;;;5144883;27;20532;-83
2021/10/07 01:34:45;;;;;;;9.83;3.03;;;;;;;;;;5146726;27;20481;-82
2021/10/07 01:37:13;;;;;;;3.60;2.30;;;;;;;;;;5143184;27;20801;-82
2021/10/07 01:39:40;;;;;;;3.90;2.30;;;;;;;;;;5144063;27;20454;-82
2021/10/07 01:42:07;;;;;;;3.33;2.00;;;;;;;;;;5144836;27;20539;-82
2021/10/07 01:44:34;;;;;;;3.40;1.80;;;;;;;;;;5144402;27;20493;-82
2021/10/07 01:47:01;;;;;;;3.33;1.70;;;;;;;;;;5146441;27;20466;-81
2021/10/07 01:49:28;;;;;;;2.67;1.60;;;;;;;;;;5143795;27;20492;-82
2021/10/07 01:51:55;;;;;;;2.87;1.83;;;;;;;;;;5125793;27;20541;-82
2021/10/07 01:54:22;;;;;;;3.97;2.27;;;;;;;;;;5123806;27;20558;-82
2021/10/07 01:56:49;;;;;;;3.87;2.43;;;;;;;;;;5123088;27;20828;-82
2021/10/07 01:59:16;;;;;;;3.17;2.03;;;;;;;;;;5124963;27;20494;-82
2021/10/07 02:01:43;;;;;;;4.00;2.00;;;;;;;;;;5140294;27;20478;-82
2021/10/07 02:04:10;;;;;;;5.53;1.90;;;;;;;;;;5145101;27;20575;-82
2021/10/07 02:06:37;;;;;;;2.53;1.67;;;;;;;;;;5145987;27;20504;-82
2021/10/07 02:09:05;;;;;;;2.37;1.67;;;;;;;;;;5144023;27;20504;-82
2021/10/07 02:11:33;;;;;;;2.93;2.20;;;;;;;;;;5143856;27;20489;-82
2021/10/07 02:14:00;;;;;;;2.43;1.87;;;;;;;;;;5143933;27;20520;-82
2021/10/07 02:16:28;;;;;;;4.20;1.70;;;;;;;;;;5143338;27;20507;-80
2021/10/07 02:18:55;;;;;;;4.70;2.20;;;;;;;;;;5140412;27;20461;-82
2021/10/07 02:21:22;;;;;;;3.30;2.30;;;;;;;;;;5122589;27;20788;-82
2021/10/07 02:23:49;;;;;;;6.27;2.83;;;;;;;;;;5123774;27;20862;-82
2021/10/07 02:26:16;;;;;;;4.20;2.10;;;;;;;;;;5124052;27;20478;-82
2021/10/07 02:28:44;;;;;;;3.50;2.70;;;;;;;;;;5126742;27;20465;-82
2021/10/07 02:31:11;;;;;;;4.10;1.77;;;;;;;;;;5144209;27;20504;-81
2021/10/07 02:33:37;;;;;;;3.20;2.00;;;;;;;;;;5144147;27;20809;-82
2021/10/07 02:36:05;;;;;;;8.30;2.27;;;;;;;;;;5144261;27;20626;-83
2021/10/07 02:38:32;;;;;;;3.03;1.93;;;;;;;;;;5142710;27;20450;-82
2021/10/07 02:40:59;;;;;;;3.80;2.17;;;;;;;;;;5144139;27;20588;-82
2021/10/07 02:43:26;;;;;;;3.40;2.00;;;;;;;;;;5142745;27;20548;-82
2021/10/07 02:45:53;;;;;;;2.20;1.60;;;;;;;;;;5143021;27;20945;-82
2021/10/07 02:48:20;;;;;;;3.60;1.97;;;;;;;;;;5143837;27;20814;-83
2021/10/07 02:50:47;;;;;;;4.40;1.80;;;;;;;;;;5124016;27;20510;-81
2021/10/07 02:53:14;;;;;;;3.97;2.40;;;;;;;;;;5123885;27;20767;-82
2021/10/07 02:55:41;;;;;;;3.73;1.70;;;;;;;;;;5121779;27;20573;-81
2021/10/07 02:58:08;;;;;;;3.90;2.70;;;;;;;;;;5124390;27;20433;-82
2021/10/07 03:00:36;;;;;;;6.43;3.10;;;;;;;;;;5121027;27;20516;-82
2021/10/07 03:03:04;;;;;;;2.77;2.20;;;;;;;;;;5119153;27;20447;-80
2021/10/07 03:05:31;;;;;;;2.97;1.90;;;;;;;;;;5121110;27;20478;-81
2021/10/07 03:07:58;;;;;;;2.23;1.90;;;;;;;;;;5120970;27;20474;-81
2021/10/07 03:10:25;;;;;;;3.13;2.13;;;;;;;;;;5137064;27;20507;-82
2021/10/07 03:12:52;;;;;;;3.27;2.27;;;;;;;;;;5141912;27;20727;-81
2021/10/07 03:15:18;;;;;;;3.33;1.83;;;;;;;;;;5140838;27;20568;-82
2021/10/07 03:17:46;;;;;;;3.47;1.70;;;;;;;;;;5141714;27;20733;-81
2021/10/07 03:20:13;;;;;;;4.87;3.23;;;;;;;;;;5142365;27;20492;-83
2021/10/07 03:22:41;;;;;;;4.70;2.30;;;;;;;;;;5143181;27;20493;-83
2021/10/07 03:25:08;;;;;;;2.73;2.00;;;;;;;;;;5142995;27;20732;-83
2021/10/07 03:27:35;;;;;;;3.90;2.57;;;;;;;;;;5141977;27;20450;-82
2021/10/07 03:30:02;;;;;;;3.50;1.63;;;;;;;;;;5139819;27;20450;-82
2021/10/07 03:32:29;;;;;;;2.73;1.87;;;;;;;;;;5143023;27;20457;-82
2021/10/07 03:34:56;;;;;;;3.67;2.10;;;;;;;;;;5141981;27;20524;-82
2021/10/07 03:37:24;;;;;;;2.87;2.30;;;;;;;;;;5142728;27;20924;-82
2021/10/07 03:39:51;;;;;;;8.73;1.70;;;;;;;;;;5133470;27;20929;-82
2021/10/07 03:42:18;;;;;;;3.00;1.77;;;;;;;;;;5123008;27;20543;-82
2021/10/07 03:44:45;;;;;;;3.37;2.20;;;;;;;;;;5121841;27;20562;-81
2021/10/07 03:47:12;;;;;;;2.37;1.60;;;;;;;;;;5120114;27;20561;-82
2021/10/07 03:49:39;;;;;;;4.70;3.00;;;;;;;;;;5132042;27;20447;-82
2021/10/07 03:52:06;;;;;;;3.80;2.20;;;;;;;;;;5139218;27;20724;-80
2021/10/07 03:54:34;;;;;;;5.93;2.87;;;;;;;;;;5143000;27;20578;-80
2021/10/07 03:57:01;;;;;;;2.40;1.60;;;;;;;;;;5139542;27;20536;-80
2021/10/07 03:59:28;;;;;;;5.77;2.23;;;;;;;;;;5134429;27;20797;-81
2021/10/07 04:01:55;;;;;;;2.73;1.90;;;;;;;;;;5132612;27;20461;-82
2021/10/07 04:04:22;;;;;;;2.80;1.70;;;;;;;;;;5139582;27;20548;-82
2021/10/07 04:06:48;;;;;;;3.67;2.70;;;;;;;;;;5140490;27;20536;-82
2021/10/07 04:09:15;;;;;;;2.80;1.77;;;;;;;;;;5138151;27;20445;-81
2021/10/07 04:11:43;;;;;;;2.43;1.80;;;;;;;;;;5141342;27;20827;-81
2021/10/07 04:14:13;;;;;;;4.53;3.10;;;;;;;;;;5137183;27;20540;-82
2021/10/07 04:16:40;;;;;;;3.57;2.00;;;;;;;;;;5123153;27;20450;-80
2021/10/07 04:19:09;;;;;;;4.23;2.40;;;;;;;;;;5123149;27;20462;-81
2021/10/07 04:21:39;;;;;;;4.60;2.37;;;;;;;;;;5142612;27;20532;-79
2021/10/07 04:24:06;;;;;;;4.47;2.10;;;;;;;;;;5142651;27;20510;-79
2021/10/07 04:26:33;;;;;;;4.13;2.30;;;;;;;;;;5138930;27;20540;-81
2021/10/07 04:29:00;;;;;;;3.40;2.23;;;;;;;;;;5138664;27;20465;-81
2021/10/07 04:31:28;;;;;;;8.20;4.03;;;;;;;;;;5118784;27;20451;-82
2021/10/07 04:33:55;;;;;;;4.53;1.83;;;;;;;;;;5120562;27;20450;-82
2021/10/07 04:36:22;;;;;;;2.47;1.63;;;;;;;;;;5123217;27;20447;-81
2021/10/07 04:38:49;;;;;;;3.17;2.40;;;;;;;;;;5127109;27;20932;-82
2021/10/07 04:41:16;;;;;;;4.20;2.33;;;;;;;;;;5140881;27;20442;-81
2021/10/07 04:43:43;;;;;;;3.43;3.13;;;;;;;;;;5136762;27;20549;-81
2021/10/07 04:46:11;;;;;;;3.70;1.77;;;;;;;;;;5142780;27;20445;-82
2021/10/07 04:48:38;;;;;;;3.00;2.23;;;;;;;;;;5138544;27;20525;-82
2021/10/07 04:51:05;;;;;;;4.90;1.97;;;;;;;;;;5139907;27;20453;-80
2021/10/07 04:53:32;;;;;;;5.23;2.20;;;;;;;;;;5139712;27;20509;-81
2021/10/07 04:55:59;;;;;;;3.37;1.90;;;;;;;;;;5137561;27;20501;-81
2021/10/07 04:58:26;;;;;;;6.80;1.53;;;;;;;;;;5139928;27;20465;-82
2021/10/07 05:00:54;;;;;;;3.17;2.20;;;;;;;;;;5139384;27;20506;-82
2021/10/07 05:03:22;;;;;;;2.90;1.80;;;;;;;;;;5139871;27;20494;-82
2021/10/07 05:05:49;;;;;;;4.87;2.40;;;;;;;;;;5140875;27;20445;-82
2021/10/07 05:08:16;;;;;;;2.93;1.90;;;;;;;;;;5117742;27;21478;-82
2021/10/07 05:10:45;;;;;;;4.80;1.73;;;;;;;;;;5120004;27;20427;-79
2021/10/07 05:13:12;;;;;;;4.00;1.80;;;;;;;;;;5120249;27;20492;-81
2021/10/07 05:15:40;;;;;;;3.67;2.27;;;;;;;;;;5120042;27;20518;-82
2021/10/07 05:18:07;;;;;;;6.73;4.93;;;;;;;;;;5120725;27;20478;-81
2021/10/07 05:20:38;;;;;;;6.07;2.40;;;;;;;;;;5098277;28;20471;-82
2021/10/07 05:23:05;;;;;;;3.60;1.80;;;;;;;;;;5101652;28;20870;-82
2021/10/07 05:25:32;;;;;;;3.37;2.40;;;;;;;;;;5099277;28;20924;-81
2021/10/07 05:28:06;;;;;;;3.57;2.83;;;;;;;;;;5100748;28;20456;-81
2021/10/07 05:30:34;;;;;;;5.33;2.53;;;;;;;;;;5098181;28;20450;-83
2021/10/07 05:33:01;;;;;;;3.67;2.80;;;;;;;;;;5098310;28;20448;-82
2021/10/07 05:35:28;;;;;;;3.97;2.10;;;;;;;;;;5098931;28;20484;-81
2021/10/07 05:37:56;;;;;;;3.90;2.50;;;;;;;;;;5098802;28;20469;-82
2021/10/07 05:40:23;;;;;;;4.57;2.70;;;;;;;;;;5138259;27;20561;-81
2021/10/07 05:42:50;;;;;;;2.60;1.93;;;;;;;;;;5139521;27;20529;-81
2021/10/07 05:45:20;;;;;;;12.83;2.17;;;;;;;;;;5137807;27;20506;-81
2021/10/07 05:47:47;;;;;;;10.47;2.70;;;;;;;;;;5120218;27;20580;-81
2021/10/07 05:50:16;;;;;;;5.50;3.70;;;;;;;;;;5135296;27;20491;-81
2021/10/07 05:52:44;;;;;;;6.00;3.60;;;;;;;;;;5140569;27;20721;-81
2021/10/07 05:55:12;;;;;;;5.60;3.57;;;;;;;;;;5137907;27;20584;-83
2021/10/07 05:57:39;;;;;;;3.93;2.60;;;;;;;;;;5138983;27;20488;-82
2021/10/07 06:00:07;;;;;;;6.37;3.70;;;;;;;;;;5141402;27;20489;-81
2021/10/07 06:02:36;;;;;;;8.87;3.20;;;;;;;;;;5122806;27;20438;-82
2021/10/07 06:05:03;;;;;;;4.63;3.10;;;;;;;;;;5120102;27;20453;-82
2021/10/07 06:07:31;;;;;;;6.00;3.50;;;;;;;;;;5137969;27;20542;-81
2021/10/07 06:09:58;;;;;;;3.23;2.53;;;;;;;;;;5120255;28;20458;-80
2021/10/07 06:12:26;;;;;;;5.00;2.77;;;;;;;;;;5117993;28;20873;-81
2021/10/07 06:14:54;;;;;;;4.13;2.60;;;;;;;;;;5118445;28;20498;-82
2021/10/07 06:17:22;;;;;;;4.10;3.37;;;;;;;;;;5117858;28;20568;-81
2021/10/07 06:19:54;;;;;;;6.30;3.90;;;;;;;;;;5104394;28;20558;-82
2021/10/07 06:22:23;;;;;;;9.10;6.50;;;;;;;;;;5098926;28;20452;-83
2021/10/07 06:24:50;;;;;;;4.50;3.33;;;;;;;;;;5100106;28;20544;-82
2021/10/07 06:27:18;;;;;;;5.33;3.53;;;;;;;;;;5081294;28;20440;-83
2021/10/07 06:29:51;;;;;;;6.13;3.30;;;;;;;;;;5115391;27;20544;-83
2021/10/07 06:32:19;;;;;;;6.67;3.07;;;;;;;;;;5124554;27;20466;-83
2021/10/07 06:34:46;;;;;;;6.70;3.20;;;;;;;;;;5121505;27;20618;-82
2021/10/07 06:37:13;;;;;;;7.30;3.70;;;;;;;;;;5124023;27;20470;-82
2021/10/07 06:39:41;;;;;;;4.80;3.40;;;;;;;;;;5121576;27;20487;-82
2021/10/07 06:42:09;;;;;;;6.30;4.40;;;;;;;;;;5120256;27;20439;-82
2021/10/07 06:44:36;;;;;;;6.77;3.77;;;;;;;;;;5121501;27;20454;-81
2021/10/07 06:47:05;;;;;;;6.50;4.03;;;;;;;;;;5122329;27;20450;-82
2021/10/07 06:49:32;;;;;;;4.17;3.23;;;;;;;;;;5118787;27;20895;-81
2021/10/07 06:52:00;;;;;;;6.87;4.67;;;;;;;;;;5101443;27;21960;-81
2021/10/07 06:54:27;;;;;;;9.73;3.50;;;;;;;;;;5119656;28;20514;-80
2021/10/07 06:56:55;;;;;;;8.27;4.87;;;;;;;;;;5122060;28;20443;-80
2021/10/07 06:59:22;;;;;;;3.00;2.43;;;;;;;;;;5118173;27;20459;-80
2021/10/07 07:01:52;;;;;;;5.57;3.80;;;;;;;;;;5119752;27;20730;-79
2021/10/07 07:04:21;;;;;;;6.60;4.70;;;;;;;;;;5119514;27;20557;-80
2021/10/07 07:06:50;;;;;;;5.77;3.47;;;;;;;;;;5119325;27;20463;-82
2021/10/07 07:09:23;;;;;;;4.97;3.50;;;;;;;;;;5117126;27;20446;-80
2021/10/07 07:11:51;;;;;;;6.57;4.83;;;;;;;;;;5116108;27;20555;-80
2021/10/07 07:14:20;;;;;;;7.03;4.50;;;;;;;;;;5116240;27;20438;-80
2021/10/07 07:16:48;;;;;;;5.30;3.60;;;;;;;;;;5118375;27;20427;-82
2021/10/07 07:19:15;;;;;;;5.80;3.70;;;;;;;;;;5117387;27;20486;-81
2021/10/07 07:21:43;;;;;;;4.73;3.80;;;;;;;;;;5119469;27;20570;-81
2021/10/07 07:24:11;;;;;;;4.33;3.60;;;;;;;;;;5118677;27;20645;-81
2021/10/07 07:26:38;;;;;;;7.03;4.73;;;;;;;;;;5119471;27;20459;-80
2021/10/07 07:29:06;;;;;;;6.80;6.17;;;;;;;;;;5102513;28;20514;-81
2021/10/07 07:31:33;;;;;;;6.53;4.00;;;;;;;;;;5117948;27;20463;-82
2021/10/07 07:34:02;;;;;;;7.27;3.77;;;;;;;;;;5118801;27;20454;-82
2021/10/07 07:36:31;;;;;;;6.20;4.70;;;;;;;;;;5120426;27;20545;-82
2021/10/07 07:39:01;;;;;;;6.90;4.67;;;;;;;;;;5119436;27;20449;-81
2021/10/07 07:41:29;;;;;;;7.30;4.83;;;;;;;;;;5121247;27;20462;-79
2021/10/07 07:43:56;;;;;;;6.77;3.37;;;;;;;;;;5117924;27;20465;-82
2021/10/07 07:46:24;;;;;;;6.53;5.20;;;;;;;;;;5118612;27;20490;-82
2021/10/07 07:48:54;;;;;;;5.50;4.27;;;;;;;;;;5138424;27;20453;-81
2021/10/07 07:51:21;;;;;;;7.80;5.27;;;;;;;;;;5123874;27;20565;-80
2021/10/07 07:53:52;;;;;;;12.73;5.73;;;;;;;;;;5110742;28;20443;-81
2021/10/07 07:56:20;;;;;;;8.73;5.30;;;;;;;;;;5125597;28;20491;-81
2021/10/07 07:58:48;;;;;;;5.23;4.03;;;;;;;;;;5126689;27;20457;-81
2021/10/07 08:01:19;;;;;;;13.60;5.53;;;;;;;;;;5123431;27;20462;-82
2021/10/07 08:03:46;;;;;;;7.30;6.00;;;;;;;;;;5121517;28;20455;-80
2021/10/07 08:06:14;;;;;;;6.83;6.00;;;;;;;;;;5121710;27;20504;-81
2021/10/07 08:08:41;;;;;;;6.93;3.97;;;;;;;;;;5128995;28;20460;-82
2021/10/07 08:11:12;;;;;;;6.07;4.73;;;;;;;;;;5128674;27;20442;-81
2021/10/07 08:13:40;;;;;;;5.10;4.17;;;;;;;;;;5125803;28;20469;-80
2021/10/07 08:16:08;;;;;;;5.23;4.73;;;;;;;;;;5127682;28;20518;-81
2021/10/07 08:18:36;;;;;;;7.00;4.90;;;;;;;;;;5127586;27;20553;-82
2021/10/07 08:21:03;;;;;;;5.73;4.73;;;;;;;;;;5126913;28;20486;-83
2021/10/07 08:23:32;;;;;;;6.37;5.53;;;;;;;;;;5126561;27;20759;-82
2021/10/07 08:25:59;;;;;;;7.67;5.30;;;;;;;;;;5127161;27;20462;-81
2021/10/07 08:28:27;;;;;;;5.67;4.40;;;;;;;;;;5122525;27;20508;-81
2021/10/07 08:30:57;;;;;;;8.83;6.33;;;;;;;;;;5125589;27;20463;-81
2021/10/07 08:33:26;;;;;;;10.63;8.37;;;;;;;;;;5124607;27;20450;-79
2021/10/07 08:35:53;;;;;;;5.30;4.33;;;;;;;;;;5122574;27;20578;-83
2021/10/07 08:38:26;;;;;;;7.20;4.50;;;;;;;;;;5123021;27;20491;-82
2021/10/07 08:40:54;;;;;;;5.77;4.50;;;;;;;;;;5129874;27;20461;-82
2021/10/07 08:43:43;;;;;;;4.90;3.43;;;;;;;;;;5124552;27;20442;-82
2021/10/07 08:49:20;;;;;;;9.80;5.90;;;;;;;;;;5119597;27;20450;-78
2021/10/07 08:51:47;;;;;;;10.03;6.40;;;;;;;;;;5112025;28;20502;-81
2021/10/07 08:54:15;;;;;;;6.03;5.40;;;;;;;;;;5125086;27;20479;-80
2021/10/07 08:56:42;;;;;;;4.90;3.73;;;;;;;;;;5128779;28;20754;-80
2021/10/07 08:59:10;;;;;;;7.50;4.30;;;;;;;;;;5132589;27;20473;-80
2021/10/07 09:01:41;;;;;;;7.50;4.70;;;;;;;;;;5113584;28;20715;-80
2021/10/07 09:04:19;;;;;;;9.27;6.00;;;;;;;;;;5126721;27;20454;-80
2021/10/07 09:06:47;;;;;;;8.30;5.00;;;;;;;;;;5125708;28;20454;-80
2021/10/07 09:09:14;;;;;;;6.37;5.33;;;;;;;;;;5129854;27;20441;-79
2021/10/07 09:11:42;;;;;;;8.13;4.97;;;;;;;;;;5148596;27;20535;-81
2021/10/07 09:14:12;;;;;;;5.43;3.00;;;;;;;;;;5145863;27;20694;-80
2021/10/07 09:16:45;;;;;;;6.03;3.90;;;;;;;;;;5128124;27;20480;-81
2021/10/07 09:19:24;;;;;;;4.10;3.20;;;;;;;;;;5125330;28;20474;-80
2021/10/07 09:21:51;;;;;;;8.40;3.37;;;;;;;;;;5118284;27;20450;-80
2021/10/07 09:24:29;;;;;;;8.00;3.90;;;;;;;;;;5124996;27;20442;-79
2021/10/07 09:26:59;;;;;;;6.47;3.47;;;;;;;;;;5121525;28;20446;-80
2021/10/07 09:29:34;;;;;;;7.03;4.93;;;;;;;;;;5124707;28;20711;-80
2021/10/07 09:32:02;;;;;;;6.40;4.13;;;;;;;;;;5122757;28;20533;-81
2021/10/07 09:34:47;;;;;;;4.13;2.60;;;;;;;;;;5123848;28;20461;-80
2021/10/07 09:37:21;;;;;;;3.53;2.97;;;;;;;;;;5124608;28;20474;-80
2021/10/07 09:39:49;;;;;;;5.13;3.37;;;;;;;;;;5126387;27;20534;-80
2021/10/07 09:42:21;;;;;;;9.27;3.73;;;;;;;;;;5125947;28;20462;-80
2021/10/07 09:45:12;;;;;;;5.40;3.17;;;;;;;;;;5124284;28;20505;-79
2021/10/07 09:47:42;;;;;;;9.50;5.80;;;;;;;;;;5099166;28;20550;-79
2021/10/07 09:50:15;;;;;;;6.87;5.23;;;;;;;;;;5124408;28;20461;-80
2021/10/07 09:52:43;;;;;;;5.40;3.57;;;;;;;;;;5125951;27;20898;-80
2021/10/07 09:55:12;;;;;;;3.77;2.53;;;;;;;;;;5130130;27;20490;-80
2021/10/07 09:57:48;;;;;;;4.60;3.50;;;;;;;;;;5123856;28;20455;-81
2021/10/07 10:00:15;;;;;;;8.70;4.37;;;;;;;;;;5124280;28;20454;-80
2021/10/07 10:02:43;;;;;;;4.57;3.10;;;;;;;;;;5127450;28;20885;-79
2021/10/07 10:05:13;;;;;;;4.83;2.10;;;;;;;;;;5126440;27;20764;-80
2021/10/07 10:07:41;;;;;;;4.13;3.43;;;;;;;;;;5123201;27;20448;-80
2021/10/07 10:10:09;;;;;;;5.40;1.70;;;;;;;;;;5124015;28;20475;-79
2021/10/07 10:12:36;;;;;;;6.70;5.00;;;;;;;;;;5124827;28;20877;-80
2021/10/07 10:15:07;;;;;;;5.03;2.57;;;;;;;;;;5124353;28;20891;-80
2021/10/07 10:17:42;;;;;;;4.00;2.60;;;;;;;;;;5124766;27;20534;-79
2021/10/07 10:20:13;;;;;;;6.77;4.20;;;;;;;;;;5137008;27;20442;-79
2021/10/07 10:22:43;;;;;;;7.70;5.10;;;;;;;;;;5123984;27;20550;-80
2021/10/07 10:25:13;;;;;;;8.23;3.37;;;;;;;;;;5124583;27;20462;-80
2021/10/07 10:27:51;;;;;;;4.47;3.30;;;;;;;;;;5120260;27;20461;-81
2021/10/07 10:30:26;;;;;;;3.90;3.10;;;;;;;;;;5121670;27;20434;-80
2021/10/07 10:32:54;;;;;;;4.53;3.33;;;;;;;;;;5107045;28;20462;-79
2021/10/07 10:35:37;;;;;;;6.50;3.87;;;;;;;;;;5128462;28;20479;-81
2021/10/07 10:38:05;;;;;;;8.93;2.93;;;;;;;;;;5118721;28;20455;-80
2021/10/07 10:40:33;;;;;;;8.47;3.33;;;;;;;;;;5126534;28;20506;-80
2021/10/07 10:43:19;;;;;;;4.83;3.40;;;;;;;;;;5129971;27;20584;-81
2021/10/07 10:45:47;;;;;;;10.30;3.73;;;;;;;;;;5115455;28;20727;-79
2021/10/07 10:48:15;;;;;;;5.57;4.73;;;;;;;;;;5121829;27;20451;-80
2021/10/07 10:50:44;;;;;;;8.87;7.13;;;;;;;;;;5125719;27;20499;-81
2021/10/07 10:53:21;;;;;;;7.00;4.70;;;;;;;;;;5126604;28;20455;-80
2021/10/07 10:55:50;;;;;;;5.13;4.10;;;;;;;;;;5123993;28;20479;-80
2021/10/07 10:58:17;;;;;;;4.60;2.80;;;;;;;;;;5123392;27;20599;-80
2021/10/07 11:00:45;;;;;;;4.90;2.90;;;;;;;;;;5128409;27;20556;-80
2021/10/07 11:03:19;;;;;;;6.70;3.87;;;;;;;;;;5129496;27;20459;-81
2021/10/07 11:05:57;;;;;;;8.30;5.30;;;;;;;;;;5125292;28;20454;-82
2021/10/07 11:08:24;;;;;;;4.40;2.60;;;;;;;;;;5125108;27;20462;-80
2021/10/07 11:10:53;;;;;;;5.47;3.23;;;;;;;;;;5126714;27;20476;-82
2021/10/07 11:13:22;;;;;;;2.87;2.00;;;;;;;;;;5125354;27;20451;-80
2021/10/07 11:15:53;;;;;;;4.53;2.97;;;;;;;;;;5128639;27;20508;-79
2021/10/07 11:18:20;;;;;;;5.63;2.70;;;;;;;;;;5124759;27;20447;-82
2021/10/07 11:20:55;;;;;;;5.27;3.30;;;;;;;;;;5138465;27;20462;-79
2021/10/07 11:23:42;;;;;;;5.93;4.03;;;;;;;;;;5123301;27;20492;-77
2021/10/07 11:26:13;;;;;;;4.57;3.23;;;;;;;;;;5131173;27;20466;-80
2021/10/07 11:28:41;;;;;;;5.00;2.83;;;;;;;;;;5130047;27;20465;-79
2021/10/07 11:31:10;;;;;;;6.50;3.53;;;;;;;;;;5121864;27;20486;-80
2021/10/07 11:33:37;;;;;;;7.97;6.20;;;;;;;;;;5120151;27;20464;-81
2021/10/07 11:36:09;;;;;;;5.40;2.90;;;;;;;;;;5109580;27;21115;-79
2021/10/07 11:38:39;;;;;;;7.60;5.00;;;;;;;;;;5123376;27;20449;-80
2021/10/07 11:41:15;;;;;;;3.60;2.20;;;;;;;;;;5129063;27;20502;-81
2021/10/07 11:43:45;;;;;;;6.43;5.40;;;;;;;;;;5117796;28;20455;-81
2021/10/07 11:46:13;;;;;;;3.43;1.90;;;;;;;;;;5121321;27;20732;-80
2021/10/07 11:48:44;;;;;;;8.87;5.10;;;;;;;;;;5138531;27;20452;-81
2021/10/07 11:51:16;;;;;;;4.43;2.10;;;;;;;;;;5122183;27;20459;-81
2021/10/07 11:53:47;;;;;;;5.20;2.27;;;;;;;;;;5123174;27;20470;-80
2021/10/07 11:56:22;;;;;;;3.50;2.33;;;;;;;;;;5114246;27;20717;-79
2021/10/07 11:59:07;;;;;;;3.67;2.93;;;;;;;;;;5113711;28;20430;-82
2021/10/07 12:01:35;;;;;;;4.53;3.30;;;;;;;;;;5131677;27;20450;-80
2021/10/07 12:04:07;;;;;;;4.03;2.50;;;;;;;;;;5128628;27;20451;-81
2021/10/07 12:06:35;;;;;;;5.60;3.50;;;;;;;;;;5133684;28;20462;-81
2021/10/07 12:09:05;;;;;;;6.13;2.50;;;;;;;;;;5118078;28;20446;-80
2021/10/07 12:11:36;;;;;;;9.53;3.23;;;;;;;;;;5122688;27;20766;-80
2021/10/07 12:14:14;;;;;;;4.07;2.00;;;;;;;;;;5127784;27;20449;-80
2021/10/07 12:16:49;;;;;;;5.20;3.83;;;;;;;;;;5118529;28;20530;-80
2021/10/07 12:19:20;;;;;;;2.90;2.10;;;;;;;;;;5119327;28;20469;-81
2021/10/07 12:21:55;;;;;;;4.93;2.43;;;;;;;;;;5119495;27;20457;-80
2021/10/07 12:24:27;;;;;;;6.87;4.10;;;;;;;;;;5118452;27;20874;-80
2021/10/07 12:26:57;;;;;;;5.43;3.67;;;;;;;;;;5124558;27;20545;-81
2021/10/07 12:29:27;;;;;;;8.77;6.80;;;;;;;;;;5118939;28;20519;-81
2021/10/07 12:31:56;;;;;;;5.70;4.53;;;;;;;;;;5120899;28;20510;-80
2021/10/07 12:34:28;;;;;;;7.80;3.30;;;;;;;;;;5123676;28;21087;-79
2021/10/07 12:36:57;;;;;;;3.33;2.70;;;;;;;;;;5122035;28;20646;-79
2021/10/07 12:39:26;;;;;;;4.63;2.50;;;;;;;;;;5121121;27;20451;-80
2021/10/07 12:41:55;;;;;;;6.07;3.70;;;;;;;;;;5121449;27;20737;-80
2021/10/07 12:44:24;;;;;;;5.83;3.93;;;;;;;;;;5120657;27;20737;-80
2021/10/07 12:46:52;;;;;;;3.13;2.40;;;;;;;;;;5123131;27;21938;-80
2021/10/07 12:49:36;;;;;;;6.10;5.17;;;;;;;;;;5119466;28;20454;-80
2021/10/07 12:52:12;;;;;;;7.13;4.60;;;;;;;;;;5116782;28;20465;-79
2021/10/07 12:54:39;;;;;;;8.27;5.27;;;;;;;;;;5113705;28;20548;-80
2021/10/07 12:57:32;;;;;;;6.77;4.00;;;;;;;;;;5124925;27;20436;-81
2021/10/07 13:00:09;;;;;;;3.90;3.37;;;;;;;;;;5122187;28;20458;-80
2021/10/07 13:02:44;;;;;;;4.20;2.93;;;;;;;;;;5139220;27;20858;-81
2021/10/07 13:05:12;;;;;;;5.40;3.87;;;;;;;;;;5107919;28;20498;-81
2021/10/07 13:07:41;;;;;;;4.50;2.90;;;;;;;;;;5110323;27;20473;-79
2021/10/07 13:10:08;;;;;;;6.23;4.47;;;;;;;;;;5119782;28;20516;-79
2021/10/07 13:12:35;;;;;;;5.70;4.20;;;;;;;;;;5120849;28;20830;-81
2021/10/07 13:15:12;;;;;;;4.47;2.63;;;;;;;;;;5129469;27;20491;-78
2021/10/07 13:17:40;;;;;;;10.33;6.87;;;;;;;;;;5125846;27;20457;-79
2021/10/07 13:20:08;;;;;;;9.40;5.53;;;;;;;;;;5128514;27;20790;-79
2021/10/07 13:22:41;;;;;;;4.10;3.07;;;;;;;;;;5120271;27;20504;-80
2021/10/07 13:25:13;;;;;;;8.10;5.67;;;;;;;;;;5116948;28;20519;-81
2021/10/07 13:27:55;;;;;;;3.73;2.83;;;;;;;;;;5124614;27;20447;-80
2021/10/07 13:30:22;;;;;;;4.03;2.63;;;;;;;;;;5124832;27;20447;-79
2021/10/07 13:32:54;;;;;;;4.10;2.87;;;;;;;;;;5121196;28;20498;-80
2021/10/07 13:35:21;;;;;;;4.93;3.20;;;;;;;;;;5125415;27;20532;-79
2021/10/07 13:37:50;;;;;;;2.97;2.13;;;;;;;;;;5115177;27;20447;-80
2021/10/07 13:40:20;;;;;;;3.23;2.20;;;;;;;;;;5107938;28;20466;-80
2021/10/07 13:42:47;;;;;;;5.10;3.93;;;;;;;;;;5105356;28;20454;-81
2021/10/07 13:45:16;;;;;;;4.03;3.10;;;;;;;;;;5109780;28;20507;-78
2021/10/07 13:47:49;;;;;;;3.57;3.17;;;;;;;;;;5119177;28;20443;-82
2021/10/07 13:50:18;;;;;;;6.23;3.27;;;;;;;;;;5120888;28;20572;-79
2021/10/07 13:52:46;;;;;;;5.60;3.93;;;;;;;;;;5120447;27;20561;-79
2021/10/07 13:55:13;;;;;;;3.13;1.93;;;;;;;;;;5120485;27;20581;-80
2021/10/07 13:57:40;;;;;;;4.70;3.47;;;;;;;;;;5121010;27;20447;-80
2021/10/07 14:00:13;;;;;;;9.43;5.50;;;;;;;;;;5117402;28;20463;-80
2021/10/07 14:02:40;;;;;;;5.03;4.43;;;;;;;;;;5115466;28;20447;-80
2021/10/07 14:05:11;;;;;;;5.93;5.07;;;;;;;;;;5121770;28;20468;-80
2021/10/07 14:07:38;;;;;;;8.20;7.10;;;;;;;;;;5108840;28;20448;-80
2021/10/07 14:10:06;;;;;;;7.03;6.07;;;;;;;;;;5123309;27;20466;-80
2021/10/07 14:12:34;;;;;;;4.60;2.80;;;;;;;;;;5111117;28;20454;-78
2021/10/07 14:15:02;;;;;;;6.47;3.80;;;;;;;;;;5120262;28;20538;-80
2021/10/07 14:17:32;;;;;;;4.27;2.73;;;;;;;;;;5125086;28;20439;-79
2021/10/07 14:20:02;;;;;;;3.20;2.60;;;;;;;;;;5125031;27;20479;-80
2021/10/07 14:22:30;;;;;;;4.60;3.50;;;;;;;;;;5127989;28;20892;-79
2021/10/07 14:24:58;;;;;;;4.37;3.13;;;;;;;;;;5132494;27;20446;-80
2021/10/07 14:27:25;;;;;;;5.73;3.50;;;;;;;;;;5124980;28;20710;-81
2021/10/07 14:29:54;;;;;;;5.20;2.43;;;;;;;;;;5122649;27;20447;-79
2021/10/07 14:32:22;;;;;;;3.80;2.97;;;;;;;;;;5113059;28;20537;-83
2021/10/07 14:34:49;;;;;;;3.33;2.70;;;;;;;;;;5123352;27;20453;-79
2021/10/07 14:37:17;;;;;;;4.20;3.03;;;;;;;;;;5124521;27;20526;-79
2021/10/07 14:39:45;;;;;;;4.83;2.20;;;;;;;;;;5121810;27;20454;-80
2021/10/07 14:42:12;;;;;;;4.57;2.60;;;;;;;;;;5124226;27;20857;-80
2021/10/07 14:44:39;;;;;;;3.67;2.60;;;;;;;;;;5120392;27;20451;-81
2021/10/07 14:47:06;;;;;;;3.80;3.23;;;;;;;;;;5141788;27;20458;-78
2021/10/07 14:49:34;;;;;;;4.70;3.20;;;;;;;;;;5144841;27;20752;-79
2021/10/07 14:52:05;;;;;;;4.10;3.20;;;;;;;;;;5120477;27;20446;-79
2021/10/07 14:54:34;;;;;;;5.13;3.80;;;;;;;;;;5122086;27;20547;-79
2021/10/07 14:57:03;;;;;;;3.53;1.53;;;;;;;;;;5121366;27;20494;-81
2021/10/07 14:59:32;;;;;;;5.90;3.67;;;;;;;;;;5121996;27;20553;-81
2021/10/07 15:01:59;;;;;;;6.67;3.87;;;;;;;;;;5128587;27;20515;-81